Weather forecast for Bozoy (Бозой)

Russia, 588 m
N53.011, E104.880


Sounding

Red line — air temperature ˚C.
Blue line — thermal bubble temperature ˚C.
Green line — dew point temperature ˚C.
Wind speed is in meters per second.

Table forecast

GFS 0.25˚ model

temp. wind gust humid. clouds prec. press. hpbl
Mon18 00:00 -23 56.0 ne 2 3 74 72 0.0 1039 57
03:00 -23 59.0 ene 2 3 75 42 0.0 1038 40
06:00 -24 62.0 ene 2 3 76 0 0.0 1036 44
09:00 -24 63.0 ene 2 2 76 0 0.0 1036 39
12:00 -21 71.0 ene 2 3 62 0 0.0 1033 198
15:00 -18 77.0 ene 2 4 53 0 0.0 1030 231
18:00 -20 64.0 ene 3 4 68 25 0.0 1029 87
21:00 -20 54.0 ne 3 5 66 12 0.0 1029 97
 
Tue19 00:00 -21 55.0 ne 3 4 70 0 0.0 1027 69
03:00 -20 52.0 ne 3 5 71 17 0.0 1026 104
06:00 -20 57.0 ene 4 7 73 100 0.0 1024 164
09:00 -19 54.0 ne 3 5 83 92 0.0 1025 131
12:00 -17 55.0 ne 2 4 83 84 0.0 1024 163
15:00 -14 70.0 ene 2 3 79 92 0.0 1024 187
18:00 -16 66.0 ene 1 2 86 88 0.0 1024 20
21:00 -16 69.0 ene 1 1 88 59 0.0 1025 20
 
Wed20 00:00 -16 77.0 ene 2 2 88 48 0.0 1024 20
03:00 -16 67.0 ene 2 2 87 60 0.0 1023 22
06:00 -16 58.0 ene 3 3 86 100 0.0 1021 43
09:00 -15 60.0 ene 3 4 86 100 0.0 1019 64
12:00 -12 65.0 ene 3 7 77 100 0.0 1016 197
15:00 -9 71.0 ene 2 5 78 100 0.0 1014 209
18:00 -11 115.0 ese 1 2 90 100 0.0 1015 21
21:00 -12 77.0 ene 1 1 92 100 0.0 1016 21
 
Thu21 00:00 -12 336.0 nnw 1 1 94 99 0.0 1017 21
03:00 -12 316.0 nw 1 1 96 100 0.3 1019 20
06:00 -11 341.0 nnw 5 10 87 100 0.3 1021 508
09:00 -13 309.0 nw 3 7 86 100 0.5 1023 359
12:00 -14 318.0 nw 4 7 73 100 0.0 1025 646
15:00 -14 306.0 nw 5 7 73 100 0.0 1026 739
18:00 -16 297.0 wnw 4 7 83 100 0.0 1028 463
21:00 -18 297.0 wnw 3 6 91 99 0.0 1031 274
 
Fri22 00:00 -20 302.0 wnw 2 2 90 49 0.0 1033 34
03:00 -21 280.0 w 2 2 93 25 0.0 1034 26
06:00 -21 270.0 w 1 1 94 0 0.0 1034 20
09:00 -22 261.0 w 1 2 96 0 0.0 1035 20
12:00 -19 249.0 wsw 1 2 86 0 0.0 1034 168
15:00 -17 238.0 wsw 1 2 76 16 0.0 1032 364
18:00 -18 150.0 sse 1 1 89 100 0.0 1032 20
21:00 -18 70.0 ene 1 1 86 100 0.0 1032 20
 

0.012 s